sensor_id;sensor_type;location;lat;lon;timestamp;temperature;humidity
70826;SHT31;58446;41.490;22.098;2023-06-26T00:02:13;25.53;61.91
70826;SHT31;58446;41.490;22.098;2023-06-26T00:04:39;25.46;62.07
70826;SHT31;58446;41.490;22.098;2023-06-26T00:07:05;25.42;62.30
70826;SHT31;58446;41.490;22.098;2023-06-26T00:09:30;25.39;62.44
70826;SHT31;58446;41.490;22.098;2023-06-26T00:11:56;25.29;62.77
70826;SHT31;58446;41.490;22.098;2023-06-26T00:14:22;25.29;62.67
70826;SHT31;58446;41.490;22.098;2023-06-26T00:16:47;25.29;62.78
70826;SHT31;58446;41.490;22.098;2023-06-26T00:19:16;25.37;62.38
70826;SHT31;58446;41.490;22.098;2023-06-26T00:21:41;25.38;62.23
70826;SHT31;58446;41.490;22.098;2023-06-26T00:24:13;25.35;62.28
70826;SHT31;58446;41.490;22.098;2023-06-26T00:26:39;25.38;62.23
70826;SHT31;58446;41.490;22.098;2023-06-26T00:29:05;25.41;62.24
70826;SHT31;58446;41.490;22.098;2023-06-26T00:31:30;25.18;63.58
70826;SHT31;58446;41.490;22.098;2023-06-26T00:33:56;25.08;63.43
70826;SHT31;58446;41.490;22.098;2023-06-26T00:36:22;25.32;62.68
70826;SHT31;58446;41.490;22.098;2023-06-26T00:38:52;25.46;62.47
70826;SHT31;58446;41.490;22.098;2023-06-26T00:41:18;25.48;62.54
70826;SHT31;58446;41.490;22.098;2023-06-26T00:43:44;25.41;62.80
70826;SHT31;58446;41.490;22.098;2023-06-26T00:46:13;25.39;62.84
70826;SHT31;58446;41.490;22.098;2023-06-26T00:48:41;25.43;62.90
70826;SHT31;58446;41.490;22.098;2023-06-26T00:51:08;25.22;63.48
70826;SHT31;58446;41.490;22.098;2023-06-26T00:53:34;25.24;63.45
70826;SHT31;58446;41.490;22.098;2023-06-26T00:56:01;25.27;63.52
70826;SHT31;58446;41.490;22.098;2023-06-26T00:58:27;25.31;63.42
70826;SHT31;58446;41.490;22.098;2023-06-26T01:00:53;25.37;63.39
70826;SHT31;58446;41.490;22.098;2023-06-26T01:03:27;25.19;64.17
70826;SHT31;58446;41.490;22.098;2023-06-26T01:05:54;25.11;64.15
70826;SHT31;58446;41.490;22.098;2023-06-26T01:08:22;24.94;65.10
70826;SHT31;58446;41.490;22.098;2023-06-26T01:10:48;24.91;64.68
70826;SHT31;58446;41.490;22.098;2023-06-26T01:13:14;24.87;65.02
70826;SHT31;58446;41.490;22.098;2023-06-26T01:15:41;24.84;64.98
70826;SHT31;58446;41.490;22.098;2023-06-26T01:18:08;24.44;66.31
70826;SHT31;58446;41.490;22.098;2023-06-26T01:20:36;23.84;68.23
70826;SHT31;58446;41.490;22.098;2023-06-26T01:23:24;23.24;70.08
70826;SHT31;58446;41.490;22.098;2023-06-26T01:26:12;22.65;72.04
70826;SHT31;58446;41.490;22.098;2023-06-26T01:28:42;22.82;71.63
70826;SHT31;58446;41.490;22.098;2023-06-26T01:31:10;23.53;69.41
70826;SHT31;58446;41.490;22.098;2023-06-26T01:33:36;23.61;69.49
70826;SHT31;58446;41.490;22.098;2023-06-26T01:36:02;23.57;69.46
70826;SHT31;58446;41.490;22.098;2023-06-26T01:38:28;23.84;68.54
70826;SHT31;58446;41.490;22.098;2023-06-26T01:40:54;23.97;68.65
70826;SHT31;58446;41.490;22.098;2023-06-26T01:46:31;24.40;66.87
70826;SHT31;58446;41.490;22.098;2023-06-26T01:49:06;24.41;66.80
70826;SHT31;58446;41.490;22.098;2023-06-26T01:51:46;24.61;66.11
70826;SHT31;58446;41.490;22.098;2023-06-26T01:54:17;24.67;65.99
70826;SHT31;58446;41.490;22.098;2023-06-26T01:56:45;24.61;66.07
70826;SHT31;58446;41.490;22.098;2023-06-26T01:59:14;24.74;65.59
70826;SHT31;58446;41.490;22.098;2023-06-26T02:01:40;24.73;65.62
70826;SHT31;58446;41.490;22.098;2023-06-26T02:04:06;24.77;65.47
70826;SHT31;58446;41.490;22.098;2023-06-26T02:06:31;24.60;66.16
70826;SHT31;58446;41.490;22.098;2023-06-26T02:08:57;24.33;67.28
70826;SHT31;58446;41.490;22.098;2023-06-26T02:11:23;24.52;66.13
70826;SHT31;58446;41.490;22.098;2023-06-26T02:13:49;24.41;66.69
70826;SHT31;58446;41.490;22.098;2023-06-26T02:16:14;24.43;66.55
70826;SHT31;58446;41.490;22.098;2023-06-26T02:18:40;24.50;66.30
70826;SHT31;58446;41.490;22.098;2023-06-26T02:21:06;24.44;66.87
70826;SHT31;58446;41.490;22.098;2023-06-26T02:23:32;24.30;67.18
70826;SHT31;58446;41.490;22.098;2023-06-26T02:25:58;24.01;68.64
70826;SHT31;58446;41.490;22.098;2023-06-26T02:28:23;23.81;69.26
70826;SHT31;58446;41.490;22.098;2023-06-26T02:30:49;23.58;69.78
70826;SHT31;58446;41.490;22.098;2023-06-26T02:33:15;23.89;68.74
70826;SHT31;58446;41.490;22.098;2023-06-26T02:35:40;24.25;67.71
70826;SHT31;58446;41.490;22.098;2023-06-26T02:38:06;24.37;67.21
70826;SHT31;58446;41.490;22.098;2023-06-26T02:40:31;24.39;67.22
70826;SHT31;58446;41.490;22.098;2023-06-26T02:42:58;24.35;67.54
70826;SHT31;58446;41.490;22.098;2023-06-26T02:45:24;24.30;67.40
70826;SHT31;58446;41.490;22.098;2023-06-26T02:47:49;24.36;67.29
70826;SHT31;58446;41.490;22.098;2023-06-26T02:50:15;24.23;67.68
70826;SHT31;58446;41.490;22.098;2023-06-26T02:52:41;24.36;67.17
70826;SHT31;58446;41.490;22.098;2023-06-26T02:55:07;24.41;66.97
70826;SHT31;58446;41.490;22.098;2023-06-26T02:57:32;24.23;67.87
70826;SHT31;58446;41.490;22.098;2023-06-26T02:59:58;24.43;66.86
70826;SHT31;58446;41.490;22.098;2023-06-26T03:02:24;24.23;67.57
70826;SHT31;58446;41.490;22.098;2023-06-26T03:04:49;24.19;67.70
70826;SHT31;58446;41.490;22.098;2023-06-26T03:07:15;23.72;69.13
70826;SHT31;58446;41.490;22.098;2023-06-26T03:09:41;23.97;68.48
70826;SHT31;58446;41.490;22.098;2023-06-26T03:12:07;24.13;67.74
70826;SHT31;58446;41.490;22.098;2023-06-26T03:14:33;24.25;67.60
70826;SHT31;58446;41.490;22.098;2023-06-26T03:16:59;24.13;68.40
70826;SHT31;58446;41.490;22.098;2023-06-26T03:19:28;24.06;68.08
70826;SHT31;58446;41.490;22.098;2023-06-26T03:21:54;24.25;67.53
70826;SHT31;58446;41.490;22.098;2023-06-26T03:24:20;24.39;67.10
70826;SHT31;58446;41.490;22.098;2023-06-26T03:26:46;24.41;67.31
70826;SHT31;58446;41.490;22.098;2023-06-26T03:29:11;24.40;67.12
70826;SHT31;58446;41.490;22.098;2023-06-26T03:31:37;24.30;67.51
70826;SHT31;58446;41.490;22.098;2023-06-26T03:34:03;24.43;67.31
70826;SHT31;58446;41.490;22.098;2023-06-26T03:36:28;24.49;67.29
70826;SHT31;58446;41.490;22.098;2023-06-26T03:38:54;24.22;68.64
70826;SHT31;58446;41.490;22.098;2023-06-26T03:41:23;23.75;70.12
70826;SHT31;58446;41.490;22.098;2023-06-26T03:43:49;23.99;68.84
70826;SHT31;58446;41.490;22.098;2023-06-26T03:46:14;24.08;69.48
70826;SHT31;58446;41.490;22.098;2023-06-26T03:48:40;24.19;68.58
70826;SHT31;58446;41.490;22.098;2023-06-26T03:51:06;24.23;68.51
70826;SHT31;58446;41.490;22.098;2023-06-26T03:53:33;24.25;68.51
70826;SHT31;58446;41.490;22.098;2023-06-26T03:55:59;24.15;69.31
70826;SHT31;58446;41.490;22.098;2023-06-26T03:58:24;24.29;68.44
70826;SHT31;58446;41.490;22.098;2023-06-26T04:00:51;24.28;68.54
70826;SHT31;58446;41.490;22.098;2023-06-26T04:03:16;24.41;67.05
70826;SHT31;58446;41.490;22.098;2023-06-26T04:05:42;24.46;66.64
70826;SHT31;58446;41.490;22.098;2023-06-26T04:08:08;24.57;66.02
70826;SHT31;58446;41.490;22.098;2023-06-26T04:10:34;24.55;66.15
70826;SHT31;58446;41.490;22.098;2023-06-26T04:13:01;24.61;65.76
70826;SHT31;58446;41.490;22.098;2023-06-26T04:15:27;24.67;65.52
70826;SHT31;58446;41.490;22.098;2023-06-26T04:17:52;24.71;65.60
70826;SHT31;58446;41.490;22.098;2023-06-26T04:20:18;24.78;65.34
70826;SHT31;58446;41.490;22.098;2023-06-26T04:22:44;24.88;64.89
70826;SHT31;58446;41.490;22.098;2023-06-26T04:25:09;24.97;64.36
70826;SHT31;58446;41.490;22.098;2023-06-26T04:27:37;25.08;63.98
70826;SHT31;58446;41.490;22.098;2023-06-26T04:30:03;25.12;64.05
70826;SHT31;58446;41.490;22.098;2023-06-26T04:32:30;25.19;63.71
70826;SHT31;58446;41.490;22.098;2023-06-26T04:34:55;25.27;63.72
70826;SHT31;58446;41.490;22.098;2023-06-26T04:37:22;25.35;63.17
70826;SHT31;58446;41.490;22.098;2023-06-26T04:39:47;25.32;63.59
70826;SHT31;58446;41.490;22.098;2023-06-26T04:42:13;25.45;63.47
70826;SHT31;58446;41.490;22.098;2023-06-26T04:44:39;25.59;63.43
70826;SHT31;58446;41.490;22.098;2023-06-26T04:47:07;25.72;62.97
70826;SHT31;58446;41.490;22.098;2023-06-26T04:49:33;25.82;62.71
70826;SHT31;58446;41.490;22.098;2023-06-26T04:52:00;25.86;62.35
70826;SHT31;58446;41.490;22.098;2023-06-26T04:54:26;26.00;62.13
70826;SHT31;58446;41.490;22.098;2023-06-26T04:56:53;26.06;61.70
70826;SHT31;58446;41.490;22.098;2023-06-26T04:59:19;26.13;61.75
70826;SHT31;58446;41.490;22.098;2023-06-26T05:01:44;26.18;62.39
70826;SHT31;58446;41.490;22.098;2023-06-26T05:04:14;26.36;60.58
70826;SHT31;58446;41.490;22.098;2023-06-26T05:06:40;26.49;60.88
70826;SHT31;58446;41.490;22.098;2023-06-26T05:09:06;26.48;60.31
70826;SHT31;58446;41.490;22.098;2023-06-26T05:11:31;26.33;60.29
70826;SHT31;58446;41.490;22.098;2023-06-26T05:13:57;26.24;60.54
70826;SHT31;58446;41.490;22.098;2023-06-26T05:16:22;26.21;60.72
70826;SHT31;58446;41.490;22.098;2023-06-26T05:18:48;26.23;61.71
70826;SHT31;58446;41.490;22.098;2023-06-26T05:21:16;26.40;60.90
70826;SHT31;58446;41.490;22.098;2023-06-26T05:23:42;26.49;60.74
70826;SHT31;58446;41.490;22.098;2023-06-26T05:26:10;26.59;60.43
70826;SHT31;58446;41.490;22.098;2023-06-26T05:28:36;26.45;61.02
70826;SHT31;58446;41.490;22.098;2023-06-26T05:31:03;26.36;61.64
70826;SHT31;58446;41.490;22.098;2023-06-26T05:33:30;26.41;61.51
70826;SHT31;58446;41.490;22.098;2023-06-26T05:35:56;26.41;62.15
70826;SHT31;58446;41.490;22.098;2023-06-26T05:38:24;26.48;61.97
70826;SHT31;58446;41.490;22.098;2023-06-26T05:40:50;26.65;61.05
70826;SHT31;58446;41.490;22.098;2023-06-26T05:43:16;26.64;59.47
70826;SHT31;58446;41.490;22.098;2023-06-26T05:45:42;26.82;60.04
70826;SHT31;58446;41.490;22.098;2023-06-26T05:48:07;27.00;59.46
70826;SHT31;58446;41.490;22.098;2023-06-26T05:50:33;27.09;58.18
70826;SHT31;58446;41.490;22.098;2023-06-26T05:52:59;27.00;58.41
70826;SHT31;58446;41.490;22.098;2023-06-26T05:55:28;26.89;58.44
70826;SHT31;58446;41.490;22.098;2023-06-26T05:57:57;26.88;58.39
70826;SHT31;58446;41.490;22.098;2023-06-26T06:00:24;26.89;58.27
70826;SHT31;58446;41.490;22.098;2023-06-26T06:02:51;26.78;58.33
70826;SHT31;58446;41.490;22.098;2023-06-26T06:05:23;26.68;58.81
70826;SHT31;58446;41.490;22.098;2023-06-26T06:07:49;26.72;59.04
70826;SHT31;58446;41.490;22.098;2023-06-26T06:10:15;26.69;58.74
70826;SHT31;58446;41.490;22.098;2023-06-26T06:12:41;26.78;60.33
70826;SHT31;58446;41.490;22.098;2023-06-26T06:15:07;26.98;58.25
70826;SHT31;58446;41.490;22.098;2023-06-26T06:17:33;27.06;57.51
70826;SHT31;58446;41.490;22.098;2023-06-26T06:19:58;27.25;57.21
70826;SHT31;58446;41.490;22.098;2023-06-26T06:22:24;27.49;57.74
70826;SHT31;58446;41.490;22.098;2023-06-26T06:24:50;27.74;57.14
70826;SHT31;58446;41.490;22.098;2023-06-26T06:27:16;27.78;56.69
70826;SHT31;58446;41.490;22.098;2023-06-26T06:29:42;27.54;56.33
70826;SHT31;58446;41.490;22.098;2023-06-26T06:32:08;27.47;55.90
70826;SHT31;58446;41.490;22.098;2023-06-26T06:34:33;27.46;55.97
70826;SHT31;58446;41.490;22.098;2023-06-26T06:36:59;27.43;55.91
70826;SHT31;58446;41.490;22.098;2023-06-26T06:39:25;27.39;55.69
70826;SHT31;58446;41.490;22.098;2023-06-26T06:41:51;27.63;56.90
70826;SHT31;58446;41.490;22.098;2023-06-26T06:44:16;27.90;54.92
70826;SHT31;58446;41.490;22.098;2023-06-26T06:46:42;28.05;54.20
70826;SHT31;58446;41.490;22.098;2023-06-26T06:49:08;28.05;53.88
70826;SHT31;58446;41.490;22.098;2023-06-26T06:51:34;27.91;54.59
70826;SHT31;58446;41.490;22.098;2023-06-26T06:53:59;27.74;55.28
70826;SHT31;58446;41.490;22.098;2023-06-26T06:56:27;27.73;55.10
70826;SHT31;58446;41.490;22.098;2023-06-26T06:58:53;27.91;54.36
70826;SHT31;58446;41.490;22.098;2023-06-26T07:01:19;28.00;54.41
70826;SHT31;58446;41.490;22.098;2023-06-26T07:03:45;28.19;53.86
70826;SHT31;58446;41.490;22.098;2023-06-26T07:06:10;28.41;53.18
70826;SHT31;58446;41.490;22.098;2023-06-26T07:08:36;28.60;53.72
70826;SHT31;58446;41.490;22.098;2023-06-26T07:11:02;28.42;53.09
70826;SHT31;58446;41.490;22.098;2023-06-26T07:13:28;28.18;53.25
70826;SHT31;58446;41.490;22.098;2023-06-26T07:15:54;28.09;53.41
70826;SHT31;58446;41.490;22.098;2023-06-26T07:18:19;27.91;53.49
70826;SHT31;58446;41.490;22.098;2023-06-26T07:20:45;28.11;54.01
70826;SHT31;58446;41.490;22.098;2023-06-26T07:23:10;28.37;52.96
70826;SHT31;58446;41.490;22.098;2023-06-26T07:25:36;28.63;52.98
70826;SHT31;58446;41.490;22.098;2023-06-26T07:28:02;28.75;51.73
70826;SHT31;58446;41.490;22.098;2023-06-26T07:30:28;28.73;51.45
70826;SHT31;58446;41.490;22.098;2023-06-26T07:32:54;28.49;52.76
70826;SHT31;58446;41.490;22.098;2023-06-26T07:35:19;28.34;52.64
70826;SHT31;58446;41.490;22.098;2023-06-26T07:37:45;27.98;52.61
70826;SHT31;58446;41.490;22.098;2023-06-26T07:40:11;27.81;52.90
70826;SHT31;58446;41.490;22.098;2023-06-26T07:42:36;27.73;52.91
70826;SHT31;58446;41.490;22.098;2023-06-26T07:45:03;27.78;52.83
70826;SHT31;58446;41.490;22.098;2023-06-26T07:47:36;28.01;52.51
70826;SHT31;58446;41.490;22.098;2023-06-26T07:50:02;27.97;52.33
70826;SHT31;58446;41.490;22.098;2023-06-26T07:52:28;28.04;52.49
70826;SHT31;58446;41.490;22.098;2023-06-26T07:54:55;28.17;52.30
70826;SHT31;58446;41.490;22.098;2023-06-26T07:57:21;28.19;51.62
70826;SHT31;58446;41.490;22.098;2023-06-26T07:59:47;28.37;51.32
70826;SHT31;58446;41.490;22.098;2023-06-26T08:02:12;28.45;52.02
70826;SHT31;58446;41.490;22.098;2023-06-26T08:04:38;28.59;50.76
70826;SHT31;58446;41.490;22.098;2023-06-26T08:07:04;28.55;51.15
70826;SHT31;58446;41.490;22.098;2023-06-26T08:09:30;28.52;50.33
70826;SHT31;58446;41.490;22.098;2023-06-26T08:11:56;28.29;50.74
70826;SHT31;58446;41.490;22.098;2023-06-26T08:14:23;28.37;51.06
70826;SHT31;58446;41.490;22.098;2023-06-26T08:16:48;28.44;51.45
70826;SHT31;58446;41.490;22.098;2023-06-26T08:19:15;28.48;50.41
70826;SHT31;58446;41.490;22.098;2023-06-26T08:21:41;28.56;51.13
70826;SHT31;58446;41.490;22.098;2023-06-26T08:24:07;28.48;50.95
70826;SHT31;58446;41.490;22.098;2023-06-26T08:26:34;28.42;50.87
70826;SHT31;58446;41.490;22.098;2023-06-26T08:29:03;28.39;51.63
70826;SHT31;58446;41.490;22.098;2023-06-26T08:31:34;28.55;50.95
70826;SHT31;58446;41.490;22.098;2023-06-26T08:34:01;28.62;50.96
70826;SHT31;58446;41.490;22.098;2023-06-26T08:36:26;28.68;50.64
70826;SHT31;58446;41.490;22.098;2023-06-26T08:38:52;28.80;50.05
70826;SHT31;58446;41.490;22.098;2023-06-26T08:41:19;28.89;49.65
70826;SHT31;58446;41.490;22.098;2023-06-26T08:43:45;28.79;50.11
70826;SHT31;58446;41.490;22.098;2023-06-26T08:46:14;28.95;50.41
70826;SHT31;58446;41.490;22.098;2023-06-26T08:48:42;29.06;49.83
70826;SHT31;58446;41.490;22.098;2023-06-26T08:51:13;28.84;49.79
70826;SHT31;58446;41.490;22.098;2023-06-26T08:53:59;28.72;50.49
70826;SHT31;58446;41.490;22.098;2023-06-26T08:56:31;28.73;50.56
70826;SHT31;58446;41.490;22.098;2023-06-26T08:58:58;28.73;50.16
70826;SHT31;58446;41.490;22.098;2023-06-26T09:01:25;28.76;49.50
70826;SHT31;58446;41.490;22.098;2023-06-26T09:03:51;28.68;49.36
70826;SHT31;58446;41.490;22.098;2023-06-26T09:06:17;28.73;49.47
70826;SHT31;58446;41.490;22.098;2023-06-26T09:08:44;28.65;49.42
70826;SHT31;58446;41.490;22.098;2023-06-26T09:11:09;28.53;48.97
70826;SHT31;58446;41.490;22.098;2023-06-26T09:13:35;28.55;48.38
70826;SHT31;58446;41.490;22.098;2023-06-26T09:16:06;28.46;48.47
70826;SHT31;58446;41.490;22.098;2023-06-26T09:18:33;28.32;48.78
70826;SHT31;58446;41.490;22.098;2023-06-26T09:21:00;28.27;49.05
70826;SHT31;58446;41.490;22.098;2023-06-26T09:23:26;28.29;49.16
70826;SHT31;58446;41.490;22.098;2023-06-26T09:25:52;28.49;48.91
70826;SHT31;58446;41.490;22.098;2023-06-26T09:28:18;28.56;48.25
70826;SHT31;58446;41.490;22.098;2023-06-26T09:30:44;28.75;47.76
70826;SHT31;58446;41.490;22.098;2023-06-26T09:33:15;28.92;48.37
70826;SHT31;58446;41.490;22.098;2023-06-26T09:35:42;29.06;47.93
70826;SHT31;58446;41.490;22.098;2023-06-26T09:38:07;29.11;47.26
70826;SHT31;58446;41.490;22.098;2023-06-26T09:40:33;28.96;46.83
70826;SHT31;58446;41.490;22.098;2023-06-26T09:43:07;28.97;46.49
70826;SHT31;58446;41.490;22.098;2023-06-26T09:45:34;28.93;46.42
70826;SHT31;58446;41.490;22.098;2023-06-26T09:48:05;29.08;46.57
70826;SHT31;58446;41.490;22.098;2023-06-26T09:50:34;29.37;46.33
70826;SHT31;58446;41.490;22.098;2023-06-26T09:53:10;29.48;45.82
70826;SHT31;58446;41.490;22.098;2023-06-26T09:55:37;29.46;45.29
70826;SHT31;58446;41.490;22.098;2023-06-26T09:58:03;29.48;45.75
70826;SHT31;58446;41.490;22.098;2023-06-26T10:00:32;29.43;45.36
70826;SHT31;58446;41.490;22.098;2023-06-26T10:02:59;29.39;46.56
70826;SHT31;58446;41.490;22.098;2023-06-26T10:05:25;29.51;46.68
70826;SHT31;58446;41.490;22.098;2023-06-26T10:07:51;29.35;46.42
70826;SHT31;58446;41.490;22.098;2023-06-26T10:10:19;29.48;46.49
70826;SHT31;58446;41.490;22.098;2023-06-26T10:12:47;29.64;46.33
70826;SHT31;58446;41.490;22.098;2023-06-26T10:15:14;29.77;47.77
70826;SHT31;58446;41.490;22.098;2023-06-26T10:17:43;29.82;46.74
70826;SHT31;58446;41.490;22.098;2023-06-26T10:20:10;29.92;46.42
70826;SHT31;58446;41.490;22.098;2023-06-26T10:22:42;29.98;46.10
70826;SHT31;58446;41.490;22.098;2023-06-26T10:25:10;29.93;46.45
70826;SHT31;58446;41.490;22.098;2023-06-26T10:27:43;29.92;47.12
70826;SHT31;58446;41.490;22.098;2023-06-26T10:30:19;29.82;46.04
70826;SHT31;58446;41.490;22.098;2023-06-26T10:32:46;29.65;46.19
70826;SHT31;58446;41.490;22.098;2023-06-26T10:35:12;29.64;46.24
70826;SHT31;58446;41.490;22.098;2023-06-26T10:37:46;29.67;46.14
70826;SHT31;58446;41.490;22.098;2023-06-26T10:40:13;29.54;45.88
70826;SHT31;58446;41.490;22.098;2023-06-26T10:42:40;29.59;45.33
70826;SHT31;58446;41.490;22.098;2023-06-26T10:45:19;29.72;44.84
70826;SHT31;58446;41.490;22.098;2023-06-26T10:47:47;29.84;44.99
70826;SHT31;58446;41.490;22.098;2023-06-26T10:50:27;29.65;45.15
70826;SHT31;58446;41.490;22.098;2023-06-26T10:53:23;29.68;45.20
70826;SHT31;58446;41.490;22.098;2023-06-26T10:56:01;29.75;44.83
70826;SHT31;58446;41.490;22.098;2023-06-26T11:03:47;29.77;45.86
70826;SHT31;58446;41.490;22.098;2023-06-26T11:06:19;29.74;45.44
70826;SHT31;58446;41.490;22.098;2023-06-26T11:08:53;29.79;45.23
70826;SHT31;58446;41.490;22.098;2023-06-26T11:11:23;29.95;45.75
70826;SHT31;58446;41.490;22.098;2023-06-26T11:14:08;30.23;45.41
70826;SHT31;58446;41.490;22.098;2023-06-26T11:16:35;29.88;45.90
70826;SHT31;58446;41.490;22.098;2023-06-26T11:19:02;29.79;46.13
70826;SHT31;58446;41.490;22.098;2023-06-26T11:21:27;29.85;46.04
70826;SHT31;58446;41.490;22.098;2023-06-26T11:23:53;29.92;45.81
70826;SHT31;58446;41.490;22.098;2023-06-26T11:26:23;29.92;45.29
70826;SHT31;58446;41.490;22.098;2023-06-26T11:31:35;29.93;45.10
70826;SHT31;58446;41.490;22.098;2023-06-26T11:34:04;29.86;45.39
70826;SHT31;58446;41.490;22.098;2023-06-26T11:36:30;29.89;45.21
70826;SHT31;58446;41.490;22.098;2023-06-26T11:38:57;29.89;45.02
70826;SHT31;58446;41.490;22.098;2023-06-26T11:41:25;29.90;44.66
70826;SHT31;58446;41.490;22.098;2023-06-26T11:43:51;29.92;44.48
70826;SHT31;58446;41.490;22.098;2023-06-26T11:46:19;30.05;44.45
70826;SHT31;58446;41.490;22.098;2023-06-26T11:48:45;29.98;43.44
70826;SHT31;58446;41.490;22.098;2023-06-26T11:51:15;29.89;43.18
70826;SHT31;58446;41.490;22.098;2023-06-26T11:53:46;29.99;42.27
70826;SHT31;58446;41.490;22.098;2023-06-26T11:56:15;30.04;42.94
70826;SHT31;58446;41.490;22.098;2023-06-26T11:59:07;30.12;42.47
70826;SHT31;58446;41.490;22.098;2023-06-26T12:01:43;30.09;42.38
70826;SHT31;58446;41.490;22.098;2023-06-26T12:04:14;30.13;42.13
70826;SHT31;58446;41.490;22.098;2023-06-26T12:06:44;30.12;42.01
70826;SHT31;58446;41.490;22.098;2023-06-26T12:09:11;30.16;41.74
70826;SHT31;58446;41.490;22.098;2023-06-26T12:11:39;30.01;42.38
70826;SHT31;58446;41.490;22.098;2023-06-26T12:14:06;30.04;42.69
70826;SHT31;58446;41.490;22.098;2023-06-26T12:16:33;30.05;41.79
70826;SHT31;58446;41.490;22.098;2023-06-26T12:19:00;30.01;41.92
70826;SHT31;58446;41.490;22.098;2023-06-26T12:21:44;29.99;41.69
70826;SHT31;58446;41.490;22.098;2023-06-26T12:24:16;29.95;41.42
70826;SHT31;58446;41.490;22.098;2023-06-26T12:26:44;29.86;41.39
70826;SHT31;58446;41.490;22.098;2023-06-26T12:29:12;29.84;41.60
70826;SHT31;58446;41.490;22.098;2023-06-26T12:31:42;29.82;41.37
70826;SHT31;58446;41.490;22.098;2023-06-26T12:34:10;29.65;41.82
70826;SHT31;58446;41.490;22.098;2023-06-26T12:36:45;29.72;41.58
70826;SHT31;58446;41.490;22.098;2023-06-26T12:39:12;29.75;41.26
70826;SHT31;58446;41.490;22.098;2023-06-26T12:42:01;29.78;41.25
70826;SHT31;58446;41.490;22.098;2023-06-26T12:44:29;29.69;41.41
70826;SHT31;58446;41.490;22.098;2023-06-26T12:46:57;29.79;41.66
70826;SHT31;58446;41.490;22.098;2023-06-26T12:49:50;29.79;41.63
70826;SHT31;58446;41.490;22.098;2023-06-26T12:52:16;29.82;41.49
70826;SHT31;58446;41.490;22.098;2023-06-26T12:54:44;29.77;41.31
70826;SHT31;58446;41.490;22.098;2023-06-26T12:57:12;29.75;41.35
70826;SHT31;58446;41.490;22.098;2023-06-26T12:59:39;29.85;41.21
70826;SHT31;58446;41.490;22.098;2023-06-26T13:02:05;30.02;40.82
70826;SHT31;58446;41.490;22.098;2023-06-26T13:04:33;29.98;40.47
70826;SHT31;58446;41.490;22.098;2023-06-26T13:06:59;29.88;40.50
70826;SHT31;58446;41.490;22.098;2023-06-26T13:09:25;29.90;40.50
70826;SHT31;58446;41.490;22.098;2023-06-26T13:11:54;29.74;40.38
70826;SHT31;58446;41.490;22.098;2023-06-26T13:14:20;29.79;40.82
70826;SHT31;58446;41.490;22.098;2023-06-26T13:16:46;29.75;41.11
70826;SHT31;58446;41.490;22.098;2023-06-26T13:19:12;29.86;40.47
70826;SHT31;58446;41.490;22.098;2023-06-26T13:21:37;29.79;40.59
70826;SHT31;58446;41.490;22.098;2023-06-26T13:24:04;29.74;40.61
70826;SHT31;58446;41.490;22.098;2023-06-26T13:26:30;29.84;40.31
70826;SHT31;58446;41.490;22.098;2023-06-26T13:28:57;29.96;40.13
70826;SHT31;58446;41.490;22.098;2023-06-26T13:31:23;29.99;40.05
70826;SHT31;58446;41.490;22.098;2023-06-26T13:33:48;29.90;39.93
70826;SHT31;58446;41.490;22.098;2023-06-26T13:36:15;29.75;39.27
70826;SHT31;58446;41.490;22.098;2023-06-26T13:38:41;29.71;39.18
70826;SHT31;58446;41.490;22.098;2023-06-26T13:41:07;29.69;38.87
70826;SHT31;58446;41.490;22.098;2023-06-26T13:43:32;29.74;38.49
70826;SHT31;58446;41.490;22.098;2023-06-26T13:45:58;29.69;38.58
70826;SHT31;58446;41.490;22.098;2023-06-26T13:48:24;29.86;38.03
70826;SHT31;58446;41.490;22.098;2023-06-26T13:50:50;29.92;37.84
70826;SHT31;58446;41.490;22.098;2023-06-26T13:53:16;29.86;37.72
70826;SHT31;58446;41.490;22.098;2023-06-26T13:55:42;29.98;37.56
70826;SHT31;58446;41.490;22.098;2023-06-26T13:58:08;29.92;38.16
70826;SHT31;58446;41.490;22.098;2023-06-26T14:00:35;29.98;38.18
70826;SHT31;58446;41.490;22.098;2023-06-26T14:03:03;29.95;37.62
70826;SHT31;58446;41.490;22.098;2023-06-26T14:05:30;29.86;36.26
70826;SHT31;58446;41.490;22.098;2023-06-26T14:07:56;29.81;36.89
70826;SHT31;58446;41.490;22.098;2023-06-26T14:10:22;29.74;36.15
70826;SHT31;58446;41.490;22.098;2023-06-26T14:12:48;29.75;35.80
70826;SHT31;58446;41.490;22.098;2023-06-26T14:15:13;29.82;36.16
70826;SHT31;58446;41.490;22.098;2023-06-26T14:17:39;29.96;36.04
70826;SHT31;58446;41.490;22.098;2023-06-26T14:20:09;30.02;35.90
70826;SHT31;58446;41.490;22.098;2023-06-26T14:22:39;29.92;36.12
70826;SHT31;58446;41.490;22.098;2023-06-26T14:25:09;29.82;36.17
70826;SHT31;58446;41.490;22.098;2023-06-26T14:27:35;29.74;35.88
70826;SHT31;58446;41.490;22.098;2023-06-26T14:30:02;29.69;35.96
70826;SHT31;58446;41.490;22.098;2023-06-26T14:32:28;29.75;35.97
70826;SHT31;58446;41.490;22.098;2023-06-26T14:34:54;29.77;36.06
70826;SHT31;58446;41.490;22.098;2023-06-26T14:37:20;29.82;36.65
70826;SHT31;58446;41.490;22.098;2023-06-26T14:39:45;29.86;36.57
70826;SHT31;58446;41.490;22.098;2023-06-26T14:42:11;29.82;36.53
70826;SHT31;58446;41.490;22.098;2023-06-26T14:44:37;29.82;36.91
70826;SHT31;58446;41.490;22.098;2023-06-26T14:47:02;29.79;37.21
70826;SHT31;58446;41.490;22.098;2023-06-26T14:49:28;29.77;36.80
70826;SHT31;58446;41.490;22.098;2023-06-26T14:51:55;29.71;36.81
70826;SHT31;58446;41.490;22.098;2023-06-26T14:54:21;29.77;36.45
70826;SHT31;58446;41.490;22.098;2023-06-26T14:56:46;29.69;35.44
70826;SHT31;58446;41.490;22.098;2023-06-26T14:59:12;29.67;35.51
70826;SHT31;58446;41.490;22.098;2023-06-26T15:01:38;29.71;34.91
70826;SHT31;58446;41.490;22.098;2023-06-26T15:04:05;29.62;35.38
70826;SHT31;58446;41.490;22.098;2023-06-26T15:06:30;29.64;35.53
70826;SHT31;58446;41.490;22.098;2023-06-26T15:08:56;29.57;35.56
70826;SHT31;58446;41.490;22.098;2023-06-26T15:11:22;29.50;35.43
70826;SHT31;58446;41.490;22.098;2023-06-26T15:13:47;29.48;35.67
70826;SHT31;58446;41.490;22.098;2023-06-26T15:16:13;29.55;36.14
70826;SHT31;58446;41.490;22.098;2023-06-26T15:18:40;29.50;36.18
70826;SHT31;58446;41.490;22.098;2023-06-26T15:21:06;29.44;36.05
70826;SHT31;58446;41.490;22.098;2023-06-26T15:23:34;29.39;36.04
70826;SHT31;58446;41.490;22.098;2023-06-26T15:26:00;29.46;35.99
70826;SHT31;58446;41.490;22.098;2023-06-26T15:28:26;29.51;35.76